Time;durP1;ratioP1;P1;durP2;ratioP2;P2;SDS_P1;SDS_P2;PMS_P1;PMS_P2;Temp;Humidity;BMP_temperature;BMP_pressure;BME280_temperature;BME280_humidity;BME280_pressure;Samples;Min_cycle;Max_cycle;Signal;HPM_P1;HPM_P2
2021/08/16 00:00:40;;;;;;;37.90;26.30;;;;;;;25.12;62.33;95064.31;5011207;28;20022;-69
2021/08/16 00:03:05;;;;;;;47.00;29.58;;;;;;;25.30;62.08;95050.59;5007868;28;20029;-70
2021/08/16 00:05:31;;;;;;;54.50;32.85;;;;;;;25.28;61.95;95039.31;5008801;28;20400;-69
2021/08/16 00:07:56;;;;;;;63.22;36.88;;;;;;;25.16;62.03;94991.59;4990585;28;20421;-69
2021/08/16 00:10:22;;;;;;;75.63;42.25;;;;;;;25.38;61.88;94995.66;5007710;28;20479;-69
2021/08/16 00:12:48;;;;;;;76.78;41.28;;;;;;;25.56;61.57;95016.53;5011091;28;20038;-69
2021/08/16 00:15:14;;;;;;;85.72;44.85;;;;;;;25.68;61.97;95021.47;5009008;28;20080;-69
2021/08/16 00:17:39;;;;;;;94.38;48.25;;;;;;;25.68;61.65;95014.06;5008696;28;20042;-70
2021/08/16 00:20:06;;;;;;;80.82;44.47;;;;;;;25.60;61.71;94992.78;5008898;28;20041;-70
2021/08/16 00:22:31;;;;;;;91.18;48.75;;;;;;;25.83;61.72;95031.06;4992459;28;20104;-69
2021/08/16 00:24:57;;;;;;;93.88;50.05;;;;;;;25.80;61.76;95004.66;4991131;28;20030;-70
2021/08/16 00:27:22;;;;;;;100.18;52.40;;;;;;;25.81;61.50;95002.72;4971630;28;20634;-70
2021/08/16 00:29:47;;;;;;;101.03;52.10;;;;;;;25.94;61.36;95009.16;4968778;28;20115;-70
2021/08/16 00:32:13;;;;;;;75.82;44.50;;;;;;;25.96;61.38;95016.94;4976670;28;20045;-69
2021/08/16 00:34:38;;;;;;;76.10;44.30;;;;;;;26.16;61.38;95029.56;4987725;28;20046;-69
2021/08/16 00:37:03;;;;;;;88.80;52.10;;;;;;;26.24;61.69;95022.06;4990196;28;20037;-69
2021/08/16 00:39:29;;;;;;;96.95;52.38;;;;;;;26.18;61.65;95012.78;4987586;28;20125;-70
2021/08/16 00:41:54;;;;;;;78.47;47.90;;;;;;;26.12;61.78;95020.66;4989023;28;20046;-70
2021/08/16 00:44:21;;;;;;;110.93;57.35;;;;;;;26.35;61.39;95032.84;4998297;28;20044;-69
2021/08/16 00:46:47;;;;;;;86.55;47.20;;;;;;;26.07;62.01;94996.56;5008130;28;20038;-69
2021/08/16 00:49:14;;;;;;;93.78;50.17;;;;;;;26.42;60.83;95016.44;5007263;28;20029;-70
2021/08/16 00:51:39;;;;;;;73.07;42.50;;;;;;;26.28;60.82;95009.16;5002279;28;20081;-70
2021/08/16 00:54:07;;;;;;;50.03;33.08;;;;;;;26.27;61.00;95015.81;4996877;28;20038;-69
2021/08/16 00:56:33;;;;;;;44.28;28.38;;;;;;;26.34;61.20;95039.47;4988635;28;20116;-69
2021/08/16 00:59:03;;;;;;;53.90;29.98;;;;;;;26.27;61.08;95031.41;4987931;28;20054;-69
2021/08/16 01:01:29;;;;;;;68.75;37.45;;;;;;;26.34;61.54;95017.66;4988727;28;20034;-69
2021/08/16 01:03:55;;;;;;;48.28;27.50;;;;;;;26.38;61.41;95041.00;4993121;28;20034;-69
2021/08/16 01:06:20;;;;;;;46.25;28.60;;;;;;;26.31;61.04;95052.00;4988397;28;20405;-68
2021/08/16 01:08:50;;;;;;;58.03;30.35;;;;;;;25.71;61.80;95031.56;5005321;28;20038;-69
2021/08/16 01:11:16;;;;;;;41.05;25.40;;;;;;;25.63;61.00;95027.34;5011085;28;20061;-69
2021/08/16 01:13:43;;;;;;;21.50;9.73;;;;;;;24.65;59.69;95050.19;5012286;28;20068;-69
2021/08/16 01:16:09;;;;;;;19.33;12.80;;;;;;;23.27;64.32;95009.38;5012858;28;20029;-69
2021/08/16 01:18:35;;;;;;;28.60;20.00;;;;;;;24.64;63.05;95052.16;5012216;28;20034;-69
2021/08/16 01:21:02;;;;;;;63.50;25.73;;;;;;;25.07;62.63;95045.69;5008378;28;20129;-69
2021/08/16 01:23:27;;;;;;;61.15;32.30;;;;;;;25.34;62.21;95022.19;4981445;28;20523;-69
2021/08/16 01:25:53;;;;;;;60.83;32.67;;;;;;;25.29;61.85;95038.16;4972748;28;20043;-69
2021/08/16 01:28:20;;;;;;;58.60;33.83;;;;;;;25.86;61.63;95062.97;4971949;28;20023;-69
2021/08/16 01:30:49;;;;;;;60.97;32.58;;;;;;;26.07;61.99;95055.75;4974812;28;20030;-68
2021/08/16 01:33:14;;;;;;;79.80;40.45;;;;;;;26.08;61.44;94995.38;4989559;28;20117;-69
2021/08/16 01:35:39;;;;;;;99.60;44.72;;;;;;;26.49;60.63;95029.22;4979179;28;20129;-69
2021/08/16 01:38:05;;;;;;;85.10;40.25;;;;;;;26.56;60.48;95031.84;4978138;28;20077;-69
2021/08/16 01:40:31;;;;;;;99.78;46.63;;;;;;;26.59;60.54;95053.63;4993624;28;20022;-68
2021/08/16 01:42:56;;;;;;;63.63;36.58;;;;;;;26.20;60.49;95029.50;5013800;28;20221;-68
2021/08/16 01:45:22;;;;;;;85.85;41.55;;;;;;;26.31;60.47;95046.53;5011628;28;20564;-69
2021/08/16 01:47:47;;;;;;;72.50;40.40;;;;;;;26.36;60.90;95054.28;5011589;28;20104;-70
2021/08/16 01:50:13;;;;;;;88.32;43.60;;;;;;;26.45;60.47;95037.41;5010439;28;20044;-71
2021/08/16 01:52:38;;;;;;;89.68;42.95;;;;;;;26.29;60.32;95034.47;4993817;28;20146;-67
2021/08/16 01:55:06;;;;;;;91.63;44.35;;;;;;;26.56;60.56;95067.28;4973258;28;20149;-68
2021/08/16 01:57:31;;;;;;;97.63;44.13;;;;;;;26.48;60.12;95022.97;4972022;28;20030;-69
2021/08/16 01:59:58;;;;;;;95.43;47.90;;;;;;;25.83;60.66;95060.28;4986650;28;20610;-69
2021/08/16 02:02:23;;;;;;;86.03;44.72;;;;;;;26.23;60.67;95047.03;4980538;28;20039;-68
2021/08/16 02:04:49;;;;;;;93.00;46.90;;;;;;;26.51;60.55;95046.69;4972480;28;20560;-68
2021/08/16 02:07:15;;;;;;;85.18;42.15;;;;;;;26.46;60.37;95035.47;4971659;28;20038;-68
2021/08/16 02:09:41;;;;;;;94.28;45.13;;;;;;;26.51;60.07;95038.50;4993505;28;20034;-70
2021/08/16 02:12:07;;;;;;;93.13;46.97;;;;;;;26.61;60.32;95031.38;4991584;28;20039;-68
2021/08/16 02:14:32;;;;;;;101.72;47.58;;;;;;;26.63;60.47;95023.56;4990108;28;20478;-68
2021/08/16 02:16:58;;;;;;;78.80;41.70;;;;;;;26.70;60.25;95031.66;4991093;28;20050;-68
2021/08/16 02:19:23;;;;;;;114.63;49.50;;;;;;;26.51;60.05;94985.91;4989925;28;20076;-68
2021/08/16 02:21:48;;;;;;;80.40;42.60;;;;;;;26.74;60.20;95020.69;4968412;28;20070;-68
2021/08/16 02:24:14;;;;;;;93.75;45.38;;;;;;;26.72;59.77;95015.66;4985678;28;20050;-68
2021/08/16 02:26:39;;;;;;;85.28;44.47;;;;;;;26.49;59.93;94988.28;4991041;28;20050;-68
2021/08/16 02:29:05;;;;;;;71.85;38.45;;;;;;;26.60;59.41;94997.88;4984123;28;20085;-68
2021/08/16 02:31:31;;;;;;;68.68;37.42;;;;;;;26.53;59.63;94994.47;4970613;28;20058;-68
2021/08/16 02:33:57;;;;;;;65.70;38.22;;;;;;;26.37;60.01;94976.72;4973796;28;20631;-68
2021/08/16 02:36:22;;;;;;;70.18;40.13;;;;;;;26.41;59.99;94987.56;4970688;28;20047;-67
2021/08/16 02:38:47;;;;;;;74.10;37.70;;;;;;;26.38;59.79;94977.50;4996584;28;20068;-67
2021/08/16 02:41:13;;;;;;;45.08;31.23;;;;;;;26.13;59.24;94969.63;5009834;28;20574;-67
2021/08/16 02:43:39;;;;;;;62.15;34.80;;;;;;;26.17;59.71;94978.53;5009242;28;20087;-67
2021/08/16 02:46:04;;;;;;;59.22;36.08;;;;;;;26.27;59.42;94990.50;5012265;28;20026;-67
2021/08/16 02:48:30;;;;;;;71.28;39.90;;;;;;;26.26;59.22;94981.56;5008817;28;20412;-68
2021/08/16 02:50:55;;;;;;;45.78;31.67;;;;;;;26.39;59.04;95009.81;5010354;28;20037;-68
2021/08/16 02:53:20;;;;;;;62.47;36.47;;;;;;;26.17;59.66;94984.00;4992965;28;20043;-67
2021/08/16 02:55:46;;;;;;;74.25;39.40;;;;;;;26.16;59.78;94994.13;4990344;28;20049;-67
2021/08/16 02:58:11;;;;;;;63.47;37.22;;;;;;;26.16;59.52;95009.72;4990872;28;20084;-68
2021/08/16 03:00:36;;;;;;;54.85;33.92;;;;;;;26.13;59.35;95005.06;4992561;28;20030;-67
2021/08/16 03:03:02;;;;;;;62.58;35.88;;;;;;;26.07;59.65;94996.56;4975785;28;20553;-67
2021/08/16 03:05:27;;;;;;;81.60;42.85;;;;;;;25.94;59.86;95001.00;4971063;28;20046;-67
2021/08/16 03:07:52;;;;;;;60.28;34.45;;;;;;;26.09;59.64;95026.91;4980837;28;20038;-67
2021/08/16 03:10:18;;;;;;;69.35;39.08;;;;;;;25.93;59.94;95030.19;5010299;28;20022;-67
2021/08/16 03:12:44;;;;;;;66.97;37.60;;;;;;;25.97;59.57;95018.50;5012128;28;20037;-67
2021/08/16 03:15:10;;;;;;;64.22;36.20;;;;;;;26.01;59.83;95027.41;5009808;28;20041;-67
2021/08/16 03:17:36;;;;;;;66.43;37.70;;;;;;;26.03;59.71;95025.81;5008804;28;20045;-66
2021/08/16 03:20:03;;;;;;;59.03;36.65;;;;;;;25.81;60.04;95011.66;5009569;28;20042;-67
2021/08/16 03:22:28;;;;;;;54.72;35.65;;;;;;;25.99;59.52;95016.13;4998237;28;20030;-67
2021/08/16 03:24:53;;;;;;;41.00;27.73;;;;;;;25.70;59.37;94991.13;4972596;28;20433;-66
2021/08/16 03:27:19;;;;;;;41.35;28.88;;;;;;;25.89;59.27;95029.44;4969609;28;20501;-67
2021/08/16 03:29:44;;;;;;;52.67;35.55;;;;;;;25.89;59.93;95017.78;4970272;28;20039;-66
2021/08/16 03:32:10;;;;;;;42.38;30.23;;;;;;;25.47;59.52;94959.81;4969724;28;20396;-66
2021/08/16 03:34:36;;;;;;;57.38;34.22;;;;;;;25.88;60.04;95019.75;4970460;28;20031;-66
2021/08/16 03:37:01;;;;;;;51.78;34.80;;;;;;;25.81;60.37;95025.28;4971676;28;20120;-67
2021/08/16 03:39:27;;;;;;;53.53;35.42;;;;;;;25.77;59.93;95010.91;5005839;28;20042;-66
2021/08/16 03:41:52;;;;;;;62.28;37.10;;;;;;;25.81;59.91;94983.63;5009203;28;20058;-66
2021/08/16 03:44:18;;;;;;;53.63;32.38;;;;;;;25.70;60.00;94991.91;5009383;28;20041;-66
2021/08/16 03:46:43;;;;;;;52.40;33.22;;;;;;;25.64;60.02;94986.13;5007731;28;20034;-67
2021/08/16 03:49:10;;;;;;;52.38;34.33;;;;;;;25.77;60.39;95007.41;5011286;28;20022;-66
2021/08/16 03:51:36;;;;;;;53.13;35.45;;;;;;;25.75;60.29;94991.47;5006958;28;20042;-67
2021/08/16 03:54:01;;;;;;;54.83;31.42;;;;;;;25.82;60.14;94982.44;4974704;28;20050;-66
2021/08/16 03:56:26;;;;;;;49.45;32.65;;;;;;;25.78;59.80;94968.84;4989673;28;20049;-67
2021/08/16 03:58:52;;;;;;;50.47;31.40;;;;;;;25.28;60.60;94935.88;5007712;28;20045;-66
2021/08/16 04:01:17;;;;;;;50.67;31.52;;;;;;;25.65;60.90;94986.88;5009101;28;20022;-67
2021/08/16 04:03:43;;;;;;;49.92;31.90;;;;;;;25.22;60.76;94918.44;5011220;28;20092;-67
2021/08/16 04:06:09;;;;;;;53.42;33.25;;;;;;;26.00;60.06;94993.94;5008300;28;20184;-67
2021/08/16 04:08:38;;;;;;;49.85;32.97;;;;;;;25.42;60.44;94930.28;4992083;28;20072;-66
2021/08/16 04:11:03;;;;;;;47.28;31.85;;;;;;;25.43;60.40;94937.28;4988185;28;20428;-66
2021/08/16 04:13:29;;;;;;;51.97;32.40;;;;;;;25.70;60.41;94950.25;4989398;28;20033;-66
2021/08/16 04:15:54;;;;;;;59.53;36.90;;;;;;;25.65;60.13;94922.28;4990908;28;20471;-66
2021/08/16 04:18:19;;;;;;;46.05;31.60;;;;;;;25.66;60.13;94895.81;4972069;28;20086;-66
2021/08/16 04:20:45;;;;;;;51.47;31.85;;;;;;;25.99;59.54;94934.38;4969277;28;20580;-66
2021/08/16 04:23:10;;;;;;;45.15;31.88;;;;;;;26.11;59.69;94936.56;4984800;28;20133;-67
2021/08/16 04:25:36;;;;;;;38.42;25.33;;;;;;;26.30;59.34;94967.84;5008486;28;20064;-66
2021/08/16 04:28:01;;;;;;;44.67;30.15;;;;;;;26.41;59.36;94974.72;5010624;28;20105;-67
2021/08/16 04:30:26;;;;;;;46.30;29.52;;;;;;;26.22;59.22;94931.75;5008766;28;20122;-66
2021/08/16 04:32:52;;;;;;;41.95;29.58;;;;;;;26.47;59.30;94971.56;5008850;28;20457;-66
2021/08/16 04:35:19;;;;;;;51.30;29.27;;;;;;;26.55;58.70;94973.00;5008499;28;20042;-66
2021/08/16 04:37:45;;;;;;;41.28;28.77;;;;;;;26.66;58.93;94970.91;4993940;28;20134;-66
2021/08/16 04:40:11;;;;;;;40.08;28.23;;;;;;;26.64;58.77;94990.41;4971524;28;20122;-67
2021/08/16 04:42:37;;;;;;;30.30;24.73;;;;;;;26.55;58.59;95003.00;5008552;28;20069;-66
2021/08/16 04:45:04;;;;;;;37.38;25.25;;;;;;;26.59;58.98;95015.44;5008412;28;20038;-66
2021/08/16 04:47:29;;;;;;;36.10;25.80;;;;;;;26.47;58.62;94960.66;5008154;28;20475;-67
2021/08/16 04:49:56;;;;;;;36.40;27.08;;;;;;;26.49;58.44;94944.66;5008304;28;20042;-67
2021/08/16 04:52:22;;;;;;;37.63;25.40;;;;;;;26.70;58.53;94988.75;5002308;28;20030;-67
2021/08/16 04:54:47;;;;;;;34.13;27.13;;;;;;;26.72;58.65;95007.47;4989894;28;20030;-67
2021/08/16 04:57:12;;;;;;;39.58;25.65;;;;;;;26.70;58.64;94996.94;4971481;28;20047;-67
2021/08/16 04:59:38;;;;;;;36.47;24.25;;;;;;;26.59;59.13;95009.97;4967245;28;20397;-68
2021/08/16 05:02:03;;;;;;;35.58;27.20;;;;;;;26.55;58.40;95013.91;4968790;28;20691;-67
2021/08/16 05:04:29;;;;;;;30.85;23.40;;;;;;;26.73;58.71;95035.53;4968774;28;20023;-65
2021/08/16 05:06:54;;;;;;;36.17;26.20;;;;;;;26.52;58.94;95022.94;4969814;28;20118;-70
2021/08/16 05:09:20;;;;;;;33.75;23.55;;;;;;;26.44;58.57;95006.66;4968382;28;20547;-66
2021/08/16 05:11:45;;;;;;;43.08;27.67;;;;;;;26.52;59.16;95007.34;4968757;28;20496;-66
2021/08/16 05:14:10;;;;;;;31.17;23.83;;;;;;;26.63;58.91;95056.31;4968698;28;20412;-64
2021/08/16 05:16:36;;;;;;;33.97;23.88;;;;;;;25.82;59.98;95075.84;4968375;28;20034;-69
2021/08/16 05:19:02;;;;;;;41.95;28.17;;;;;;;26.35;59.74;95093.59;4970649;28;20543;-67
2021/08/16 05:21:30;;;;;;;31.50;23.85;;;;;;;26.40;60.37;95093.16;4968711;28;20035;-65
2021/08/16 05:23:56;;;;;;;28.52;21.25;;;;;;;25.96;61.01;95090.53;4995681;28;20121;-65
2021/08/16 05:26:21;;;;;;;28.30;21.10;;;;;;;26.43;60.69;95081.47;5006037;28;20607;-66
2021/08/16 05:28:47;;;;;;;23.73;17.63;;;;;;;26.40;60.12;95092.38;5005684;28;20800;-68
2021/08/16 05:31:12;;;;;;;19.83;14.18;;;;;;;25.51;59.75;95088.56;5007510;28;20018;-67
2021/08/16 05:33:37;;;;;;;15.43;11.48;;;;;;;25.47;59.91;95090.53;5009500;28;20032;-67
2021/08/16 05:36:03;;;;;;;14.63;9.63;;;;;;;24.99;61.00;95104.81;5006832;28;20117;-63
2021/08/16 05:38:28;;;;;;;12.75;9.93;;;;;;;25.26;58.25;95115.97;4984525;28;20049;-67
2021/08/16 05:40:53;;;;;;;12.68;9.43;;;;;;;24.78;60.83;95113.09;4973847;28;20070;-65
2021/08/16 05:43:19;;;;;;;11.85;9.40;;;;;;;24.93;59.11;95121.94;4985923;28;20026;-64
2021/08/16 05:45:44;;;;;;;9.35;8.55;;;;;;;25.06;59.31;95115.69;4966958;28;20035;-65
2021/08/16 05:48:10;;;;;;;8.23;7.40;;;;;;;24.74;59.64;95126.72;4982683;28;20497;-65
2021/08/16 05:50:35;;;;;;;8.98;6.88;;;;;;;24.15;61.04;95139.28;4953071;28;1084956;-65
2021/08/16 05:53:00;;;;;;;7.40;6.78;;;;;;;24.92;58.92;95125.84;4998208;28;20034;-66
2021/08/16 05:55:26;;;;;;;9.45;7.55;;;;;;;25.25;59.10;95121.81;5010346;28;20487;-66
2021/08/16 05:57:51;;;;;;;7.88;6.65;;;;;;;25.36;58.41;95136.91;5013141;28;20022;-62
2021/08/16 06:00:19;;;;;;;7.35;6.65;;;;;;;24.31;58.83;95159.47;4974558;28;20506;-63
2021/08/16 06:02:45;;;;;;;8.68;7.30;;;;;;;25.22;59.59;95152.53;4984718;28;20042;-64
2021/08/16 06:05:10;;;;;;;9.40;8.48;;;;;;;25.88;58.82;95136.13;4983830;28;20119;-65
2021/08/16 06:07:36;;;;;;;7.68;6.47;;;;;;;24.78;57.94;95148.47;4971641;28;20452;-65
2021/08/16 06:10:01;;;;;;;9.10;6.97;;;;;;;24.40;59.71;95120.22;4989082;28;20023;-64
2021/08/16 06:12:27;;;;;;;7.90;7.10;;;;;;;25.51;60.24;95128.63;4990046;28;20105;-65
2021/08/16 06:14:52;;;;;;;7.55;6.85;;;;;;;25.87;59.69;95110.84;5005388;28;20120;-66
2021/08/16 06:17:17;;;;;;;7.50;6.80;;;;;;;26.20;59.23;95114.03;5010588;28;20125;-66
2021/08/16 06:19:43;;;;;;;9.40;6.72;;;;;;;26.48;58.90;95106.75;5007046;28;20461;-67
2021/08/16 06:22:08;;;;;;;6.90;6.20;;;;;;;26.65;58.66;95116.69;5012987;28;20555;-64
2021/08/16 06:24:35;;;;;;;8.18;6.35;;;;;;;26.78;58.21;95109.50;4991333;28;20129;-64
2021/08/16 06:27:01;;;;;;;7.40;5.90;;;;;;;26.89;58.15;95101.97;4976072;28;20046;-64
2021/08/16 06:29:26;;;;;;;7.35;6.65;;;;;;;27.04;57.77;95101.78;4971926;28;20515;-64
2021/08/16 06:31:52;;;;;;;8.48;6.63;;;;;;;27.06;57.73;95107.59;4972101;28;20046;-66
2021/08/16 06:34:18;;;;;;;6.07;5.40;;;;;;;26.96;57.55;95090.16;4971789;28;20065;-64
2021/08/16 06:36:44;;;;;;;10.40;6.20;;;;;;;27.00;57.72;95076.47;4973401;28;20022;-65
2021/08/16 06:39:29;;;;;;;8.57;6.00;;;;;;;27.07;57.60;95079.09;4970965;28;20035;-64
2021/08/16 06:41:56;;;;;;;5.97;5.47;;;;;;;27.23;57.80;95082.03;4971523;28;20050;-64
2021/08/16 06:44:23;;;;;;;6.07;5.57;;;;;;;27.43;57.26;95077.41;4971475;28;20074;-65
2021/08/16 06:46:49;;;;;;;7.88;6.07;;;;;;;27.55;57.52;95075.28;4970769;28;20042;-64
2021/08/16 06:49:14;;;;;;;8.88;5.70;;;;;;;27.52;57.24;95087.81;4971822;28;20027;-64
2021/08/16 06:51:40;;;;;;;6.25;5.65;;;;;;;27.45;57.30;95077.78;4992521;28;20030;-64
2021/08/16 06:54:06;;;;;;;6.15;5.55;;;;;;;27.40;57.23;95086.44;4974750;28;20046;-64
2021/08/16 06:56:32;;;;;;;5.47;4.88;;;;;;;27.27;56.91;95071.81;4992278;28;20045;-64
2021/08/16 06:58:57;;;;;;;5.80;5.30;;;;;;;27.18;57.52;95066.88;5010315;28;20034;-64
2021/08/16 07:01:25;;;;;;;6.13;5.53;;;;;;;26.75;55.09;95071.34;5009364;28;20176;-65
2021/08/16 07:03:51;;;;;;;6.25;4.82;;;;;;;26.30;57.95;95083.16;5012089;28;20392;-65
2021/08/16 07:06:16;;;;;;;5.03;4.53;;;;;;;26.82;58.08;95063.06;5009783;28;20042;-65
2021/08/16 07:08:42;;;;;;;5.57;4.43;;;;;;;26.56;57.33;95070.03;4999224;28;20645;-65
2021/08/16 07:11:07;;;;;;;6.20;5.00;;;;;;;26.53;58.62;95073.59;4990263;28;20046;-65
2021/08/16 07:13:32;;;;;;;5.10;4.50;;;;;;;26.19;58.39;95085.22;4987738;28;20109;-66
2021/08/16 07:15:58;;;;;;;5.93;4.63;;;;;;;25.30;59.78;95075.09;4972620;28;20022;-65
2021/08/16 07:18:23;;;;;;;8.45;4.88;;;;;;;24.68;60.41;95073.91;4971542;28;20047;-66
2021/08/16 07:20:49;;;;;;;5.13;4.55;;;;;;;24.89;61.14;95089.34;4984073;28;20041;-67
2021/08/16 07:23:14;;;;;;;6.15;4.68;;;;;;;24.57;61.19;95092.97;4989754;28;20149;-65
2021/08/16 07:25:40;;;;;;;5.15;4.32;;;;;;;25.06;59.97;95079.50;4989523;28;20038;-68
2021/08/16 07:28:06;;;;;;;6.13;4.30;;;;;;;25.84;60.40;95084.38;4991974;28;20704;-68
2021/08/16 07:30:31;;;;;;;4.90;4.50;;;;;;;25.61;59.05;95089.66;5008204;28;20036;-64
2021/08/16 07:32:57;;;;;;;5.72;4.60;;;;;;;26.06;59.39;95101.34;5008423;28;20033;-63
2021/08/16 07:35:22;;;;;;;6.43;4.40;;;;;;;26.12;56.73;95088.81;5009809;28;20037;-64
2021/08/16 07:37:48;;;;;;;6.97;5.22;;;;;;;26.39;58.57;95091.63;5006464;28;20531;-64
2021/08/16 07:40:13;;;;;;;6.10;4.30;;;;;;;27.22;57.71;95094.13;4988107;28;20030;-64
2021/08/16 07:42:40;;;;;;;6.53;4.70;;;;;;;27.81;56.20;95098.31;4972448;28;20023;-64
2021/08/16 07:45:07;;;;;;;5.97;5.38;;;;;;;27.78;54.91;95101.88;4985755;28;20041;-64
2021/08/16 07:47:33;;;;;;;5.50;5.00;;;;;;;28.40;56.06;95092.94;4988087;28;20058;-64
2021/08/16 07:49:59;;;;;;;8.65;4.72;;;;;;;28.35;55.06;95109.84;4983121;28;20557;-64
2021/08/16 07:52:24;;;;;;;8.52;4.53;;;;;;;29.16;54.73;95108.63;4970632;28;20034;-64
2021/08/16 07:54:53;;;;;;;6.88;4.60;;;;;;;29.62;54.45;95120.53;4966827;28;20057;-64
2021/08/16 07:57:18;;;;;;;8.57;4.93;;;;;;;28.57;52.62;95109.47;5003931;28;20500;-64
2021/08/16 07:59:43;;;;;;;5.35;4.85;;;;;;;28.64;51.50;95118.28;5009190;28;20077;-64
2021/08/16 08:02:08;;;;;;;4.90;4.50;;;;;;;29.21;51.86;95103.41;5009195;28;20137;-64
2021/08/16 08:04:34;;;;;;;6.18;4.38;;;;;;;29.00;49.25;95107.41;5007672;28;20132;-64
2021/08/16 08:07:01;;;;;;;4.80;4.05;;;;;;;28.17;50.94;95112.91;5010529;28;20026;-64
2021/08/16 08:09:26;;;;;;;4.53;4.13;;;;;;;27.89;51.97;95116.13;4994130;28;20480;-64
2021/08/16 08:11:51;;;;;;;4.30;3.95;;;;;;;28.41;52.63;95115.63;5003240;28;20064;-64
2021/08/16 08:14:17;;;;;;;4.57;3.88;;;;;;;28.89;52.00;95117.78;5008853;28;20093;-64
2021/08/16 08:16:42;;;;;;;6.63;4.72;;;;;;;28.83;48.50;95103.06;5008638;28;20053;-65
2021/08/16 08:19:07;;;;;;;10.73;4.93;;;;;;;28.17;50.66;95112.13;5010625;28;20049;-64
2021/08/16 08:21:33;;;;;;;4.95;4.40;;;;;;;29.41;52.88;95113.56;5008855;28;20507;-64
2021/08/16 08:23:58;;;;;;;6.30;4.35;;;;;;;28.62;50.33;95108.97;4998697;28;20053;-64
2021/08/16 08:26:23;;;;;;;5.13;4.10;;;;;;;29.29;51.18;95119.72;4978971;28;20035;-65
2021/08/16 08:28:49;;;;;;;4.90;4.40;;;;;;;29.89;47.16;95129.28;4969661;28;20401;-65
2021/08/16 08:31:14;;;;;;;4.45;4.05;;;;;;;29.12;47.16;95124.38;4969816;28;20023;-65
2021/08/16 08:33:40;;;;;;;4.53;4.13;;;;;;;30.30;49.13;95116.88;4970158;28;20027;-64
2021/08/16 08:36:05;;;;;;;5.47;4.40;;;;;;;29.23;47.02;95128.44;4984247;28;20038;-64
2021/08/16 08:38:30;;;;;;;4.88;4.47;;;;;;;30.16;51.47;95118.06;4985064;28;20053;-64
2021/08/16 08:40:58;;;;;;;5.80;3.95;;;;;;;30.01;50.37;95128.59;4988881;28;20041;-64
2021/08/16 08:43:24;;;;;;;7.57;4.63;;;;;;;29.01;48.14;95119.13;4990819;28;20026;-65
2021/08/16 08:45:55;;;;;;;4.88;4.15;;;;;;;29.49;50.71;95137.63;5009834;28;20021;-64
2021/08/16 08:48:20;;;;;;;;;;;;;;;28.31;50.65;95138.47;5008838;28;20494;-65
2021/08/16 08:50:46;;;;;;;4.70;4.03;;;;;;;29.57;51.36;95132.00;5008466;28;19964;-64
2021/08/16 08:53:12;;;;;;;4.93;4.43;;;;;;;29.85;51.44;95131.34;5005596;28;20402;-65
2021/08/16 08:55:37;;;;;;;4.65;4.35;;;;;;;29.49;46.51;95126.69;4983682;28;20165;-65
2021/08/16 08:58:02;;;;;;;5.35;4.80;;;;;;;28.46;47.59;95137.81;4971136;28;20069;-65
2021/08/16 09:00:28;;;;;;;5.80;4.30;;;;;;;28.89;48.04;95144.41;4968186;28;20517;-65
2021/08/16 09:02:58;;;;;;;4.63;4.22;;;;;;;29.75;51.65;95140.59;4969353;28;20130;-65
2021/08/16 09:05:24;;;;;;;5.65;4.45;;;;;;;30.08;48.08;95133.09;4979215;28;20039;-65
2021/08/16 09:07:50;;;;;;;7.13;4.60;;;;;;;29.61;48.29;95129.97;4988337;28;20042;-65
2021/08/16 09:10:16;;;;;;;6.15;4.57;;;;;;;30.21;49.02;95135.97;4988508;28;20591;-65
2021/08/16 09:12:43;;;;;;;5.30;4.38;;;;;;;29.15;46.26;95129.00;5008957;28;20026;-66
2021/08/16 09:15:14;;;;;;;9.27;4.32;;;;;;;29.64;48.66;95138.09;5008193;28;20046;-63
2021/08/16 09:17:40;;;;;;;4.93;4.53;;;;;;;29.65;47.61;95114.22;5005663;28;20042;-63
2021/08/16 09:20:28;;;;;;;6.63;5.30;;;;;;;27.38;51.04;95127.06;5006476;28;20069;-68
2021/08/16 09:23:02;;;;;;;6.78;5.40;;;;;;;28.39;49.17;95118.78;5007227;28;20523;-65
2021/08/16 09:25:32;;;;;;;6.30;5.65;;;;;;;28.00;50.11;95111.25;4989206;28;20045;-64
2021/08/16 09:27:58;;;;;;;6.85;5.10;;;;;;;27.25;51.44;95115.16;4974283;28;20030;-66
2021/08/16 09:30:40;;;;;;;5.32;4.93;;;;;;;28.37;48.18;95082.88;4971546;28;20034;-63
2021/08/16 09:33:12;;;;;;;5.18;4.78;;;;;;;26.09;53.71;95116.09;4972935;28;20031;-64
2021/08/16 09:35:57;;;;;;;4.75;4.15;;;;;;;27.38;50.54;95110.66;4972273;28;20051;-65
2021/08/16 09:38:35;;;;;;;4.95;4.55;;;;;;;27.57;50.56;95102.97;4972131;28;20035;-72
2021/08/16 09:41:01;;;;;;;5.68;5.18;;;;;;;28.09;51.44;95105.22;4979697;28;20038;-69
2021/08/16 09:43:30;;;;;;;5.72;5.18;;;;;;;27.80;51.21;95094.81;4996979;28;20034;-70
2021/08/16 09:45:56;;;;;;;6.43;5.47;;;;;;;28.72;52.03;95075.13;4992915;28;20109;-76
2021/08/16 09:48:25;;;;;;;9.02;6.03;;;;;;;28.44;49.15;95066.28;4990594;28;20130;-74
2021/08/16 09:50:54;;;;;;;5.80;5.30;;;;;;;28.63;49.13;95031.16;4991410;28;20038;-72
2021/08/16 09:53:22;;;;;;;5.75;5.25;;;;;;;27.11;52.57;95082.56;4991589;28;20400;-76
2021/08/16 09:55:50;;;;;;;5.75;5.15;;;;;;;26.16;54.85;95050.59;4990126;28;20026;-74
2021/08/16 09:58:17;;;;;;;5.75;5.18;;;;;;;27.90;52.26;95120.41;4991629;28;20109;-75
2021/08/16 10:00:46;;;;;;;5.53;5.03;;;;;;;28.11;50.81;95081.00;4992744;28;20022;-74
2021/08/16 10:03:12;;;;;;;6.78;5.00;;;;;;;29.92;47.42;95103.72;4974204;28;20540;-74
2021/08/16 10:05:42;;;;;;;5.97;5.28;;;;;;;30.46;45.53;95136.06;4995083;28;20133;-74
2021/08/16 10:08:13;;;;;;;5.87;5.37;;;;;;;29.67;48.96;95125.50;5011496;28;20034;-75
2021/08/16 10:10:40;;;;;;;;;;;;;;;27.53;52.92;95129.56;4978855;28;20051;-71
2021/08/16 10:13:07;;;;;;;6.63;5.20;;;;;;;27.82;52.12;95125.22;4972755;28;19914;-76
2021/08/16 10:15:42;;;;;;;6.47;5.97;;;;;;;27.26;52.58;95078.44;4989965;28;20125;-74
2021/08/16 10:18:14;;;;;;;6.40;5.75;;;;;;;28.36;52.50;95114.16;4987289;28;20035;-74
2021/08/16 10:20:40;;;;;;;7.03;6.32;;;;;;;27.18;53.11;95101.59;4972345;28;20374;-73
2021/08/16 10:23:19;;;;;;;6.78;6.18;;;;;;;27.20;53.13;95130.03;4972105;28;20046;-74
2021/08/16 10:25:48;;;;;;;8.02;7.18;;;;;;;25.57;56.28;95124.31;4978891;28;20065;-74
2021/08/16 10:28:24;;;;;;;8.15;7.35;;;;;;;26.00;55.35;95129.41;5009830;28;20030;-74
2021/08/16 10:30:50;;;;;;;7.82;7.03;;;;;;;26.84;53.14;95105.13;5011604;28;20033;-77
2021/08/16 10:33:17;;;;;;;8.48;7.47;;;;;;;25.90;55.66;95112.78;5008729;28;20030;-77
2021/08/16 10:35:43;;;;;;;8.05;7.28;;;;;;;26.27;55.53;95140.47;5008781;28;20045;-76
2021/08/16 10:38:10;;;;;;;11.30;9.07;;;;;;;25.19;56.00;95066.25;5011448;28;20037;-76
2021/08/16 10:40:45;;;;;;;10.10;8.73;;;;;;;25.07;57.63;95114.50;4986542;28;20050;-76
2021/08/16 10:43:13;;;;;;;9.45;8.50;;;;;;;25.82;56.59;95143.97;4992534;28;20026;-77
2021/08/16 10:45:53;;;;;;;12.77;8.57;;;;;;;23.81;61.65;95147.88;4989225;28;20129;-76
2021/08/16 10:48:30;;;;;;;10.60;9.68;;;;;;;24.17;60.47;95135.03;4971090;28;20039;-76
2021/08/16 10:51:08;;;;;;;9.77;8.90;;;;;;;24.30;58.31;95008.38;4971344;28;20101;-76
2021/08/16 10:53:51;;;;;;;9.23;8.43;;;;;;;24.50;59.00;95051.44;4982109;28;20039;-76
2021/08/16 10:56:19;;;;;;;12.57;10.25;;;;;;;24.94;57.23;95037.22;4998652;28;20038;-77
2021/08/16 10:58:45;;;;;;;10.02;9.10;;;;;;;26.54;53.99;95126.94;5009630;28;20034;-75
2021/08/16 11:01:27;;;;;;;10.02;9.13;;;;;;;24.66;57.74;95136.06;5012885;28;20041;-75
2021/08/16 11:04:03;;;;;;;18.20;11.70;;;;;;;25.14;56.86;95034.78;5010196;28;20045;-78
2021/08/16 11:06:29;;;;;;;54.75;27.02;;;;;;;23.24;63.25;95071.81;4983846;28;20050;-77
2021/08/16 11:09:05;;;;;;;58.95;29.60;;;;;;;23.05;65.34;95110.94;5004985;28;20050;-74
2021/08/16 11:11:35;;;;;;;49.33;32.53;;;;;;;23.59;64.15;95024.84;4990123;28;20031;-74
2021/08/16 11:14:11;;;;;;;64.15;39.08;;;;;;;24.03;62.37;95004.63;4982236;28;20046;-72
2021/08/16 11:16:50;;;;;;;50.63;36.78;;;;;;;24.66;61.65;95065.34;4970423;28;20185;-72
2021/08/16 11:19:15;;;;;;;55.47;38.28;;;;;;;24.76;61.35;95007.38;4969662;28;20106;-72
2021/08/16 11:22:00;;;;;;;58.58;41.97;;;;;;;25.54;59.28;95029.75;4990884;28;20134;-72